sensor_id;sensor_type;location;lat;lon;timestamp;P1;durP1;ratioP1;P2;durP2;ratioP2
13693;SDS011;6919;52.344;14.518;2022-09-12T00:01:28;4.20;;;3.53;;
13693;SDS011;6919;52.344;14.518;2022-09-12T00:03:57;3.37;;;3.00;;
13693;SDS011;6919;52.344;14.518;2022-09-12T00:06:28;4.90;;;3.40;;
13693;SDS011;6919;52.344;14.518;2022-09-12T00:08:59;3.73;;;3.33;;
13693;SDS011;6919;52.344;14.518;2022-09-12T00:11:34;4.00;;;3.40;;
13693;SDS011;6919;52.344;14.518;2022-09-12T00:14:04;6.20;;;3.87;;
13693;SDS011;6919;52.344;14.518;2022-09-12T00:16:35;4.63;;;3.27;;
13693;SDS011;6919;52.344;14.518;2022-09-12T00:19:04;6.67;;;3.70;;
13693;SDS011;6919;52.344;14.518;2022-09-12T00:21:34;4.43;;;3.40;;
13693;SDS011;6919;52.344;14.518;2022-09-12T00:24:06;3.70;;;3.10;;
13693;SDS011;6919;52.344;14.518;2022-09-12T00:26:36;4.10;;;3.20;;
13693;SDS011;6919;52.344;14.518;2022-09-12T00:29:04;3.90;;;3.50;;
13693;SDS011;6919;52.344;14.518;2022-09-12T00:31:33;4.53;;;4.07;;
13693;SDS011;6919;52.344;14.518;2022-09-12T00:34:01;4.93;;;3.87;;
13693;SDS011;6919;52.344;14.518;2022-09-12T00:36:29;4.30;;;3.83;;
13693;SDS011;6919;52.344;14.518;2022-09-12T00:38:58;5.03;;;4.00;;
13693;SDS011;6919;52.344;14.518;2022-09-12T00:41:29;5.40;;;4.00;;
13693;SDS011;6919;52.344;14.518;2022-09-12T00:44:01;5.40;;;4.10;;
13693;SDS011;6919;52.344;14.518;2022-09-12T00:47:15;5.00;;;3.60;;
13693;SDS011;6919;52.344;14.518;2022-09-12T00:49:51;4.77;;;3.53;;
13693;SDS011;6919;52.344;14.518;2022-09-12T00:52:27;5.80;;;3.30;;
13693;SDS011;6919;52.344;14.518;2022-09-12T00:55:02;4.03;;;3.20;;
13693;SDS011;6919;52.344;14.518;2022-09-12T00:57:39;5.70;;;3.50;;
13693;SDS011;6919;52.344;14.518;2022-09-12T01:00:15;4.13;;;3.70;;
13693;SDS011;6919;52.344;14.518;2022-09-12T01:02:48;4.10;;;3.53;;
13693;SDS011;6919;52.344;14.518;2022-09-12T01:05:21;3.67;;;3.30;;
13693;SDS011;6919;52.344;14.518;2022-09-12T01:07:52;6.80;;;4.00;;
13693;SDS011;6919;52.344;14.518;2022-09-12T01:10:23;4.80;;;3.57;;
13693;SDS011;6919;52.344;14.518;2022-09-12T01:12:52;4.50;;;3.30;;
13693;SDS011;6919;52.344;14.518;2022-09-12T01:15:21;4.27;;;3.80;;
13693;SDS011;6919;52.344;14.518;2022-09-12T01:17:52;4.03;;;3.63;;
13693;SDS011;6919;52.344;14.518;2022-09-12T01:20:45;3.63;;;3.33;;
13693;SDS011;6919;52.344;14.518;2022-09-12T01:24:00;3.87;;;3.43;;
13693;SDS011;6919;52.344;14.518;2022-09-12T01:30:17;4.80;;;3.80;;
13693;SDS011;6919;52.344;14.518;2022-09-12T01:33:01;4.53;;;3.70;;
13693;SDS011;6919;52.344;14.518;2022-09-12T01:36:08;4.10;;;3.60;;
13693;SDS011;6919;52.344;14.518;2022-09-12T01:38:56;3.53;;;3.23;;
13693;SDS011;6919;52.344;14.518;2022-09-12T01:41:29;6.23;;;3.60;;
13693;SDS011;6919;52.344;14.518;2022-09-12T01:44:13;3.73;;;3.33;;
13693;SDS011;6919;52.344;14.518;2022-09-12T01:46:54;4.30;;;3.93;;
13693;SDS011;6919;52.344;14.518;2022-09-12T01:49:35;5.73;;;3.70;;
13693;SDS011;6919;52.344;14.518;2022-09-12T01:52:13;4.50;;;4.07;;
13693;SDS011;6919;52.344;14.518;2022-09-12T01:54:49;4.50;;;4.10;;
13693;SDS011;6919;52.344;14.518;2022-09-12T01:57:24;4.77;;;4.07;;
13693;SDS011;6919;52.344;14.518;2022-09-12T02:00:04;6.30;;;4.37;;
13693;SDS011;6919;52.344;14.518;2022-09-12T02:02:38;5.40;;;4.23;;
13693;SDS011;6919;52.344;14.518;2022-09-12T02:05:14;5.70;;;3.97;;
13693;SDS011;6919;52.344;14.518;2022-09-12T02:07:52;4.10;;;3.30;;
13693;SDS011;6919;52.344;14.518;2022-09-12T02:10:27;5.57;;;3.30;;
13693;SDS011;6919;52.344;14.518;2022-09-12T02:13:02;6.77;;;4.00;;
13693;SDS011;6919;52.344;14.518;2022-09-12T02:15:40;4.10;;;3.27;;
13693;SDS011;6919;52.344;14.518;2022-09-12T02:18:17;4.13;;;3.40;;
13693;SDS011;6919;52.344;14.518;2022-09-12T02:20:48;3.70;;;3.27;;
13693;SDS011;6919;52.344;14.518;2022-09-12T02:23:19;3.33;;;3.03;;
13693;SDS011;6919;52.344;14.518;2022-09-12T02:25:53;5.17;;;3.67;;
13693;SDS011;6919;52.344;14.518;2022-09-12T02:28:25;4.10;;;3.47;;
13693;SDS011;6919;52.344;14.518;2022-09-12T02:31:01;6.40;;;3.77;;
13693;SDS011;6919;52.344;14.518;2022-09-12T02:33:43;4.37;;;3.97;;
13693;SDS011;6919;52.344;14.518;2022-09-12T02:36:22;8.57;;;4.20;;
13693;SDS011;6919;52.344;14.518;2022-09-12T02:39:03;5.53;;;4.30;;
13693;SDS011;6919;52.344;14.518;2022-09-12T02:41:31;7.10;;;4.77;;
13693;SDS011;6919;52.344;14.518;2022-09-12T02:43:59;8.50;;;4.90;;
13693;SDS011;6919;52.344;14.518;2022-09-12T02:46:30;7.97;;;4.83;;
13693;SDS011;6919;52.344;14.518;2022-09-12T02:49:06;5.57;;;4.77;;
13693;SDS011;6919;52.344;14.518;2022-09-12T02:51:35;5.57;;;4.93;;
13693;SDS011;6919;52.344;14.518;2022-09-12T02:54:04;6.27;;;5.67;;
13693;SDS011;6919;52.344;14.518;2022-09-12T02:56:34;7.90;;;4.60;;
13693;SDS011;6919;52.344;14.518;2022-09-12T02:59:04;5.57;;;4.87;;
13693;SDS011;6919;52.344;14.518;2022-09-12T03:01:40;4.87;;;4.37;;
13693;SDS011;6919;52.344;14.518;2022-09-12T03:04:51;6.17;;;5.57;;
13693;SDS011;6919;52.344;14.518;2022-09-12T03:07:51;8.03;;;5.43;;
13693;SDS011;6919;52.344;14.518;2022-09-12T03:10:44;10.87;;;5.27;;
13693;SDS011;6919;52.344;14.518;2022-09-12T03:13:35;5.63;;;4.67;;
13693;SDS011;6919;52.344;14.518;2022-09-12T03:16:18;5.37;;;4.63;;
13693;SDS011;6919;52.344;14.518;2022-09-12T03:19:01;4.97;;;4.30;;
13693;SDS011;6919;52.344;14.518;2022-09-12T03:21:51;5.87;;;4.80;;
13693;SDS011;6919;52.344;14.518;2022-09-12T03:24:30;5.50;;;4.90;;
13693;SDS011;6919;52.344;14.518;2022-09-12T03:27:05;8.03;;;5.80;;
13693;SDS011;6919;52.344;14.518;2022-09-12T03:29:41;5.73;;;4.90;;
13693;SDS011;6919;52.344;14.518;2022-09-12T03:32:13;5.60;;;5.10;;
13693;SDS011;6919;52.344;14.518;2022-09-12T03:34:42;5.97;;;4.60;;
13693;SDS011;6919;52.344;14.518;2022-09-12T03:37:11;5.57;;;4.50;;
13693;SDS011;6919;52.344;14.518;2022-09-12T03:39:40;6.73;;;4.57;;
13693;SDS011;6919;52.344;14.518;2022-09-12T03:42:08;5.40;;;4.90;;
13693;SDS011;6919;52.344;14.518;2022-09-12T03:44:36;4.50;;;4.10;;
13693;SDS011;6919;52.344;14.518;2022-09-12T03:47:04;5.87;;;5.00;;
13693;SDS011;6919;52.344;14.518;2022-09-12T03:49:36;5.57;;;4.47;;
13693;SDS011;6919;52.344;14.518;2022-09-12T03:52:07;6.00;;;5.13;;
13693;SDS011;6919;52.344;14.518;2022-09-12T03:54:36;7.17;;;5.00;;
13693;SDS011;6919;52.344;14.518;2022-09-12T03:57:04;5.27;;;4.77;;
13693;SDS011;6919;52.344;14.518;2022-09-12T03:59:33;5.73;;;5.17;;
13693;SDS011;6919;52.344;14.518;2022-09-12T04:02:01;6.03;;;5.43;;
13693;SDS011;6919;52.344;14.518;2022-09-12T04:04:29;7.97;;;5.50;;
13693;SDS011;6919;52.344;14.518;2022-09-12T04:06:58;6.77;;;5.13;;
13693;SDS011;6919;52.344;14.518;2022-09-12T04:09:26;6.13;;;5.53;;
13693;SDS011;6919;52.344;14.518;2022-09-12T04:11:55;7.30;;;4.90;;
13693;SDS011;6919;52.344;14.518;2022-09-12T04:14:23;5.30;;;4.80;;
13693;SDS011;6919;52.344;14.518;2022-09-12T04:16:51;8.30;;;5.20;;
13693;SDS011;6919;52.344;14.518;2022-09-12T04:19:19;5.40;;;4.90;;
13693;SDS011;6919;52.344;14.518;2022-09-12T04:21:48;7.77;;;5.20;;
13693;SDS011;6919;52.344;14.518;2022-09-12T04:24:17;6.53;;;4.77;;
13693;SDS011;6919;52.344;14.518;2022-09-12T04:26:48;5.43;;;4.50;;
13693;SDS011;6919;52.344;14.518;2022-09-12T04:29:18;6.07;;;4.23;;
13693;SDS011;6919;52.344;14.518;2022-09-12T04:31:46;4.43;;;4.03;;
13693;SDS011;6919;52.344;14.518;2022-09-12T04:34:15;6.77;;;4.30;;
13693;SDS011;6919;52.344;14.518;2022-09-12T04:36:44;5.43;;;4.93;;
13693;SDS011;6919;52.344;14.518;2022-09-12T04:39:13;5.07;;;4.40;;
13693;SDS011;6919;52.344;14.518;2022-09-12T04:41:42;5.37;;;4.87;;
13693;SDS011;6919;52.344;14.518;2022-09-12T04:44:11;5.33;;;4.70;;
13693;SDS011;6919;52.344;14.518;2022-09-12T04:46:42;5.83;;;5.30;;
13693;SDS011;6919;52.344;14.518;2022-09-12T04:49:13;6.63;;;5.17;;
13693;SDS011;6919;52.344;14.518;2022-09-12T04:51:44;4.97;;;4.47;;
13693;SDS011;6919;52.344;14.518;2022-09-12T04:54:13;6.57;;;4.70;;
13693;SDS011;6919;52.344;14.518;2022-09-12T04:56:45;5.07;;;4.40;;
13693;SDS011;6919;52.344;14.518;2022-09-12T04:59:16;6.17;;;4.50;;
13693;SDS011;6919;52.344;14.518;2022-09-12T05:01:47;5.20;;;4.57;;
13693;SDS011;6919;52.344;14.518;2022-09-12T05:04:16;8.80;;;4.20;;
13693;SDS011;6919;52.344;14.518;2022-09-12T05:06:44;4.73;;;4.23;;
13693;SDS011;6919;52.344;14.518;2022-09-12T05:09:13;5.20;;;4.70;;
13693;SDS011;6919;52.344;14.518;2022-09-12T05:11:42;4.97;;;4.43;;
13693;SDS011;6919;52.344;14.518;2022-09-12T05:14:30;5.13;;;4.63;;
13693;SDS011;6919;52.344;14.518;2022-09-12T05:17:00;5.63;;;4.70;;
13693;SDS011;6919;52.344;14.518;2022-09-12T05:19:28;6.57;;;4.53;;
13693;SDS011;6919;52.344;14.518;2022-09-12T05:21:58;5.23;;;4.60;;
13693;SDS011;6919;52.344;14.518;2022-09-12T05:24:26;7.27;;;4.53;;
13693;SDS011;6919;52.344;14.518;2022-09-12T05:26:55;7.07;;;4.20;;
13693;SDS011;6919;52.344;14.518;2022-09-12T05:29:23;7.93;;;5.00;;
13693;SDS011;6919;52.344;14.518;2022-09-12T05:31:51;5.33;;;4.00;;
13693;SDS011;6919;52.344;14.518;2022-09-12T05:34:21;10.33;;;4.43;;
13693;SDS011;6919;52.344;14.518;2022-09-12T05:36:49;4.60;;;4.20;;
13693;SDS011;6919;52.344;14.518;2022-09-12T05:39:17;4.37;;;3.97;;
13693;SDS011;6919;52.344;14.518;2022-09-12T05:41:45;5.23;;;4.37;;
13693;SDS011;6919;52.344;14.518;2022-09-12T05:44:14;5.50;;;4.47;;
13693;SDS011;6919;52.344;14.518;2022-09-12T05:46:43;4.57;;;4.17;;
13693;SDS011;6919;52.344;14.518;2022-09-12T05:49:13;4.70;;;4.30;;
13693;SDS011;6919;52.344;14.518;2022-09-12T05:51:43;5.03;;;4.53;;
13693;SDS011;6919;52.344;14.518;2022-09-12T05:54:13;7.37;;;4.80;;
13693;SDS011;6919;52.344;14.518;2022-09-12T05:56:52;5.67;;;4.70;;
13693;SDS011;6919;52.344;14.518;2022-09-12T05:59:20;4.70;;;4.30;;
13693;SDS011;6919;52.344;14.518;2022-09-12T06:01:49;8.10;;;4.90;;
13693;SDS011;6919;52.344;14.518;2022-09-12T06:04:17;4.77;;;4.27;;
13693;SDS011;6919;52.344;14.518;2022-09-12T06:06:46;6.33;;;4.87;;
13693;SDS011;6919;52.344;14.518;2022-09-12T06:09:15;6.10;;;4.30;;
13693;SDS011;6919;52.344;14.518;2022-09-12T06:11:45;4.67;;;4.07;;
13693;SDS011;6919;52.344;14.518;2022-09-12T06:14:14;6.23;;;4.40;;
13693;SDS011;6919;52.344;14.518;2022-09-12T06:16:43;5.27;;;4.77;;
13693;SDS011;6919;52.344;14.518;2022-09-12T06:19:13;4.90;;;4.30;;
13693;SDS011;6919;52.344;14.518;2022-09-12T06:21:43;4.83;;;4.30;;
13693;SDS011;6919;52.344;14.518;2022-09-12T06:24:14;4.80;;;4.40;;
13693;SDS011;6919;52.344;14.518;2022-09-12T06:26:43;5.30;;;4.80;;
13693;SDS011;6919;52.344;14.518;2022-09-12T06:29:12;7.70;;;5.40;;
13693;SDS011;6919;52.344;14.518;2022-09-12T06:31:41;8.07;;;5.17;;
13693;SDS011;6919;52.344;14.518;2022-09-12T06:34:11;5.60;;;5.10;;
13693;SDS011;6919;52.344;14.518;2022-09-12T06:36:42;6.00;;;5.10;;
13693;SDS011;6919;52.344;14.518;2022-09-12T06:39:14;5.43;;;4.93;;
13693;SDS011;6919;52.344;14.518;2022-09-12T06:41:44;6.20;;;4.80;;
13693;SDS011;6919;52.344;14.518;2022-09-12T06:44:14;5.90;;;4.50;;
13693;SDS011;6919;52.344;14.518;2022-09-12T06:46:45;8.80;;;5.13;;
13693;SDS011;6919;52.344;14.518;2022-09-12T06:49:14;9.00;;;4.90;;
13693;SDS011;6919;52.344;14.518;2022-09-12T06:51:42;6.67;;;5.03;;
13693;SDS011;6919;52.344;14.518;2022-09-12T06:54:11;5.60;;;5.10;;
13693;SDS011;6919;52.344;14.518;2022-09-12T06:56:43;5.90;;;3.97;;
13693;SDS011;6919;52.344;14.518;2022-09-12T06:59:11;12.70;;;4.00;;
13693;SDS011;6919;52.344;14.518;2022-09-12T07:01:39;11.07;;;4.67;;
13693;SDS011;6919;52.344;14.518;2022-09-12T07:04:08;6.43;;;4.20;;
13693;SDS011;6919;52.344;14.518;2022-09-12T07:06:38;7.40;;;4.13;;
13693;SDS011;6919;52.344;14.518;2022-09-12T07:09:09;4.20;;;3.77;;
13693;SDS011;6919;52.344;14.518;2022-09-12T07:11:43;5.20;;;4.03;;
13693;SDS011;6919;52.344;14.518;2022-09-12T07:14:12;8.57;;;4.43;;
13693;SDS011;6919;52.344;14.518;2022-09-12T07:16:41;7.43;;;4.50;;
13693;SDS011;6919;52.344;14.518;2022-09-12T07:19:09;6.37;;;4.23;;
13693;SDS011;6919;52.344;14.518;2022-09-12T07:21:39;4.67;;;4.27;;
13693;SDS011;6919;52.344;14.518;2022-09-12T07:24:08;4.63;;;4.13;;
13693;SDS011;6919;52.344;14.518;2022-09-12T07:26:37;5.00;;;4.40;;
13693;SDS011;6919;52.344;14.518;2022-09-12T07:29:11;7.23;;;4.00;;
13693;SDS011;6919;52.344;14.518;2022-09-12T07:32:02;4.10;;;3.63;;
13693;SDS011;6919;52.344;14.518;2022-09-12T07:34:32;6.40;;;3.30;;
13693;SDS011;6919;52.344;14.518;2022-09-12T07:37:01;4.10;;;3.57;;
13693;SDS011;6919;52.344;14.518;2022-09-12T07:39:29;6.87;;;3.57;;
13693;SDS011;6919;52.344;14.518;2022-09-12T07:41:57;4.50;;;3.30;;
13693;SDS011;6919;52.344;14.518;2022-09-12T07:44:27;3.77;;;3.40;;
13693;SDS011;6919;52.344;14.518;2022-09-12T07:46:55;3.47;;;2.87;;
13693;SDS011;6919;52.344;14.518;2022-09-12T07:49:23;4.03;;;2.77;;
13693;SDS011;6919;52.344;14.518;2022-09-12T07:51:51;3.90;;;2.97;;
13693;SDS011;6919;52.344;14.518;2022-09-12T07:54:19;3.07;;;2.57;;
13693;SDS011;6919;52.344;14.518;2022-09-12T07:56:47;2.80;;;2.57;;
13693;SDS011;6919;52.344;14.518;2022-09-12T07:59:16;2.80;;;2.50;;
13693;SDS011;6919;52.344;14.518;2022-09-12T08:02:08;4.37;;;2.90;;
13693;SDS011;6919;52.344;14.518;2022-09-12T08:04:42;3.47;;;2.47;;
13693;SDS011;6919;52.344;14.518;2022-09-12T08:07:12;2.80;;;2.60;;
13693;SDS011;6919;52.344;14.518;2022-09-12T08:09:41;3.10;;;2.30;;
13693;SDS011;6919;52.344;14.518;2022-09-12T08:12:09;3.03;;;2.33;;
13693;SDS011;6919;52.344;14.518;2022-09-12T08:14:37;4.50;;;2.90;;
13693;SDS011;6919;52.344;14.518;2022-09-12T08:17:07;2.53;;;2.33;;
13693;SDS011;6919;52.344;14.518;2022-09-12T08:19:35;5.83;;;2.33;;
13693;SDS011;6919;52.344;14.518;2022-09-12T08:22:04;3.17;;;2.87;;
13693;SDS011;6919;52.344;14.518;2022-09-12T08:24:33;3.93;;;3.30;;
13693;SDS011;6919;52.344;14.518;2022-09-12T08:27:01;3.77;;;3.20;;
13693;SDS011;6919;52.344;14.518;2022-09-12T08:29:30;3.43;;;3.13;;
13693;SDS011;6919;52.344;14.518;2022-09-12T08:31:58;3.60;;;3.30;;
13693;SDS011;6919;52.344;14.518;2022-09-12T08:34:28;5.17;;;3.17;;
13693;SDS011;6919;52.344;14.518;2022-09-12T08:36:56;3.53;;;3.00;;
13693;SDS011;6919;52.344;14.518;2022-09-12T08:39:24;8.10;;;7.33;;
13693;SDS011;6919;52.344;14.518;2022-09-12T08:41:57;3.70;;;3.30;;
13693;SDS011;6919;52.344;14.518;2022-09-12T08:47:25;4.40;;;2.83;;
13693;SDS011;6919;52.344;14.518;2022-09-12T08:50:04;4.83;;;2.77;;
13693;SDS011;6919;52.344;14.518;2022-09-12T08:52:46;4.07;;;3.50;;
13693;SDS011;6919;52.344;14.518;2022-09-12T08:55:25;4.00;;;3.10;;
13693;SDS011;6919;52.344;14.518;2022-09-12T08:57:58;4.57;;;3.07;;
13693;SDS011;6919;52.344;14.518;2022-09-12T09:00:37;4.67;;;2.87;;
13693;SDS011;6919;52.344;14.518;2022-09-12T09:06:34;4.30;;;2.90;;
13693;SDS011;6919;52.344;14.518;2022-09-12T09:09:27;3.67;;;3.10;;
13693;SDS011;6919;52.344;14.518;2022-09-12T09:12:16;2.93;;;2.50;;
13693;SDS011;6919;52.344;14.518;2022-09-12T09:15:03;4.17;;;2.57;;
13693;SDS011;6919;52.344;14.518;2022-09-12T09:18:00;3.13;;;2.17;;
13693;SDS011;6919;52.344;14.518;2022-09-12T09:20:37;3.27;;;1.97;;
13693;SDS011;6919;52.344;14.518;2022-09-12T09:23:13;3.73;;;2.03;;
13693;SDS011;6919;52.344;14.518;2022-09-12T09:25:50;2.47;;;2.27;;
13693;SDS011;6919;52.344;14.518;2022-09-12T09:28:25;3.53;;;2.20;;
13693;SDS011;6919;52.344;14.518;2022-09-12T09:31:08;2.63;;;2.43;;
13693;SDS011;6919;52.344;14.518;2022-09-12T09:33:41;7.07;;;2.30;;
13693;SDS011;6919;52.344;14.518;2022-09-12T09:36:14;2.13;;;1.93;;
13693;SDS011;6919;52.344;14.518;2022-09-12T09:38:53;4.33;;;1.67;;
13693;SDS011;6919;52.344;14.518;2022-09-12T09:41:33;2.40;;;1.70;;
13693;SDS011;6919;52.344;14.518;2022-09-12T09:44:16;2.40;;;2.03;;
13693;SDS011;6919;52.344;14.518;2022-09-12T09:47:12;2.77;;;2.20;;
13693;SDS011;6919;52.344;14.518;2022-09-12T09:49:41;2.40;;;2.20;;
13693;SDS011;6919;52.344;14.518;2022-09-12T09:52:10;2.57;;;2.20;;
13693;SDS011;6919;52.344;14.518;2022-09-12T09:54:45;2.60;;;1.87;;
13693;SDS011;6919;52.344;14.518;2022-09-12T09:57:36;2.33;;;1.90;;
13693;SDS011;6919;52.344;14.518;2022-09-12T10:05:58;3.53;;;1.80;;
13693;SDS011;6919;52.344;14.518;2022-09-12T10:08:29;2.17;;;1.93;;
13693;SDS011;6919;52.344;14.518;2022-09-12T10:11:03;2.53;;;1.90;;
13693;SDS011;6919;52.344;14.518;2022-09-12T10:13:34;2.37;;;1.90;;
13693;SDS011;6919;52.344;14.518;2022-09-12T10:16:16;2.10;;;1.87;;
13693;SDS011;6919;52.344;14.518;2022-09-12T10:18:48;2.67;;;2.00;;
13693;SDS011;6919;52.344;14.518;2022-09-12T10:21:24;2.13;;;1.93;;
13693;SDS011;6919;52.344;14.518;2022-09-12T10:23:59;2.40;;;1.80;;
13693;SDS011;6919;52.344;14.518;2022-09-12T10:26:46;2.40;;;2.13;;
13693;SDS011;6919;52.344;14.518;2022-09-12T10:29:23;2.93;;;2.37;;
13693;SDS011;6919;52.344;14.518;2022-09-12T10:31:57;2.20;;;1.87;;
13693;SDS011;6919;52.344;14.518;2022-09-12T10:34:33;2.67;;;2.07;;
13693;SDS011;6919;52.344;14.518;2022-09-12T10:37:06;2.10;;;1.37;;
13693;SDS011;6919;52.344;14.518;2022-09-12T10:39:37;3.20;;;1.70;;
13693;SDS011;6919;52.344;14.518;2022-09-12T10:42:11;1.57;;;1.40;;
13693;SDS011;6919;52.344;14.518;2022-09-12T10:44:51;2.30;;;1.47;;
13693;SDS011;6919;52.344;14.518;2022-09-12T10:47:21;1.87;;;1.50;;
13693;SDS011;6919;52.344;14.518;2022-09-12T10:50:01;1.47;;;1.30;;
13693;SDS011;6919;52.344;14.518;2022-09-12T10:52:52;1.40;;;1.30;;
13693;SDS011;6919;52.344;14.518;2022-09-12T10:55:23;2.10;;;1.40;;
13693;SDS011;6919;52.344;14.518;2022-09-12T10:58:08;1.70;;;1.47;;
13693;SDS011;6919;52.344;14.518;2022-09-12T11:01:08;1.30;;;1.20;;
13693;SDS011;6919;52.344;14.518;2022-09-12T11:04:00;1.67;;;1.50;;
13693;SDS011;6919;52.344;14.518;2022-09-12T11:06:59;1.40;;;1.30;;
13693;SDS011;6919;52.344;14.518;2022-09-12T11:09:47;3.30;;;1.37;;
13693;SDS011;6919;52.344;14.518;2022-09-12T11:12:27;2.53;;;1.20;;
13693;SDS011;6919;52.344;14.518;2022-09-12T11:15:14;1.73;;;1.20;;
13693;SDS011;6919;52.344;14.518;2022-09-12T11:18:03;1.13;;;1.03;;
13693;SDS011;6919;52.344;14.518;2022-09-12T11:20:59;2.57;;;1.30;;
13693;SDS011;6919;52.344;14.518;2022-09-12T11:23:52;4.80;;;1.37;;
13693;SDS011;6919;52.344;14.518;2022-09-12T11:26:54;1.57;;;1.20;;
13693;SDS011;6919;52.344;14.518;2022-09-12T11:29:38;1.93;;;1.17;;
13693;SDS011;6919;52.344;14.518;2022-09-12T11:32:26;1.37;;;1.13;;
13693;SDS011;6919;52.344;14.518;2022-09-12T11:35:30;1.27;;;1.17;;
13693;SDS011;6919;52.344;14.518;2022-09-12T11:38:11;1.57;;;1.20;;
13693;SDS011;6919;52.344;14.518;2022-09-12T11:40:55;1.10;;;1.00;;
13693;SDS011;6919;52.344;14.518;2022-09-12T11:43:31;1.20;;;1.00;;
13693;SDS011;6919;52.344;14.518;2022-09-12T11:46:08;1.67;;;1.40;;
13693;SDS011;6919;52.344;14.518;2022-09-12T11:48:50;1.07;;;0.97;;
13693;SDS011;6919;52.344;14.518;2022-09-12T11:51:24;0.97;;;0.87;;
13693;SDS011;6919;52.344;14.518;2022-09-12T11:53:59;2.70;;;1.40;;
13693;SDS011;6919;52.344;14.518;2022-09-12T11:56:41;1.57;;;1.00;;
13693;SDS011;6919;52.344;14.518;2022-09-12T11:59:15;1.43;;;1.10;;
13693;SDS011;6919;52.344;14.518;2022-09-12T12:01:58;1.30;;;1.10;;
13693;SDS011;6919;52.344;14.518;2022-09-12T12:04:33;3.50;;;1.30;;
13693;SDS011;6919;52.344;14.518;2022-09-12T12:07:11;1.83;;;1.30;;
13693;SDS011;6919;52.344;14.518;2022-09-12T12:09:44;1.20;;;1.10;;
13693;SDS011;6919;52.344;14.518;2022-09-12T12:12:18;1.63;;;1.10;;
13693;SDS011;6919;52.344;14.518;2022-09-12T12:14:53;1.20;;;1.10;;
13693;SDS011;6919;52.344;14.518;2022-09-12T12:17:24;1.20;;;1.03;;
13693;SDS011;6919;52.344;14.518;2022-09-12T12:19:57;1.20;;;1.10;;
13693;SDS011;6919;52.344;14.518;2022-09-12T12:22:33;2.10;;;1.10;;
13693;SDS011;6919;52.344;14.518;2022-09-12T12:25:06;1.37;;;1.10;;
13693;SDS011;6919;52.344;14.518;2022-09-12T12:27:55;1.87;;;1.23;;
13693;SDS011;6919;52.344;14.518;2022-09-12T12:36:48;1.23;;;1.13;;
13693;SDS011;6919;52.344;14.518;2022-09-12T12:46:07;2.40;;;1.20;;
13693;SDS011;6919;52.344;14.518;2022-09-12T12:51:48;2.93;;;1.13;;
13693;SDS011;6919;52.344;14.518;2022-09-12T12:57:30;1.40;;;1.30;;
13693;SDS011;6919;52.344;14.518;2022-09-12T13:00:26;1.47;;;1.30;;
13693;SDS011;6919;52.344;14.518;2022-09-12T13:03:08;1.33;;;1.10;;
13693;SDS011;6919;52.344;14.518;2022-09-12T13:05:50;1.73;;;1.10;;
13693;SDS011;6919;52.344;14.518;2022-09-12T13:08:31;4.50;;;1.13;;
13693;SDS011;6919;52.344;14.518;2022-09-12T13:11:06;1.70;;;1.13;;
13693;SDS011;6919;52.344;14.518;2022-09-12T13:13:39;1.17;;;1.07;;
13693;SDS011;6919;52.344;14.518;2022-09-12T13:16:27;2.10;;;1.33;;
13693;SDS011;6919;52.344;14.518;2022-09-12T13:19:00;1.83;;;1.00;;
13693;SDS011;6919;52.344;14.518;2022-09-12T13:21:33;1.10;;;1.00;;
13693;SDS011;6919;52.344;14.518;2022-09-12T13:24:04;0.90;;;0.90;;
13693;SDS011;6919;52.344;14.518;2022-09-12T13:26:43;1.13;;;0.90;;
13693;SDS011;6919;52.344;14.518;2022-09-12T13:29:14;1.20;;;0.90;;
13693;SDS011;6919;52.344;14.518;2022-09-12T13:31:45;1.90;;;1.10;;
13693;SDS011;6919;52.344;14.518;2022-09-12T13:34:18;1.23;;;1.02;;
13693;SDS011;6919;52.344;14.518;2022-09-12T13:36:53;2.50;;;1.10;;
13693;SDS011;6919;52.344;14.518;2022-09-12T13:39:58;1.60;;;1.15;;
13693;SDS011;6919;52.344;14.518;2022-09-12T13:42:47;3.30;;;2.03;;
13693;SDS011;6919;52.344;14.518;2022-09-12T13:45:20;1.87;;;1.40;;
13693;SDS011;6919;52.344;14.518;2022-09-12T13:47:52;1.73;;;1.40;;
13693;SDS011;6919;52.344;14.518;2022-09-12T13:50:27;3.33;;;1.80;;
13693;SDS011;6919;52.344;14.518;2022-09-12T13:53:03;3.07;;;1.40;;
13693;SDS011;6919;52.344;14.518;2022-09-12T13:55:39;2.00;;;1.30;;
13693;SDS011;6919;52.344;14.518;2022-09-12T13:58:15;1.20;;;1.10;;
13693;SDS011;6919;52.344;14.518;2022-09-12T14:00:59;1.37;;;1.20;;
13693;SDS011;6919;52.344;14.518;2022-09-12T14:03:31;4.20;;;1.77;;
13693;SDS011;6919;52.344;14.518;2022-09-12T14:06:24;3.73;;;1.40;;
13693;SDS011;6919;52.344;14.518;2022-09-12T14:08:53;1.07;;;1.00;;
13693;SDS011;6919;52.344;14.518;2022-09-12T14:11:27;1.30;;;1.10;;
13693;SDS011;6919;52.344;14.518;2022-09-12T14:13:58;3.00;;;1.40;;
13693;SDS011;6919;52.344;14.518;2022-09-12T14:16:36;0.90;;;0.90;;
13693;SDS011;6919;52.344;14.518;2022-09-12T14:19:09;1.70;;;1.20;;
13693;SDS011;6919;52.344;14.518;2022-09-12T14:21:41;3.87;;;1.17;;
13693;SDS011;6919;52.344;14.518;2022-09-12T14:24:10;1.73;;;1.33;;
13693;SDS011;6919;52.344;14.518;2022-09-12T14:26:41;1.60;;;1.10;;
13693;SDS011;6919;52.344;14.518;2022-09-12T14:29:12;1.20;;;1.10;;
13693;SDS011;6919;52.344;14.518;2022-09-12T14:31:43;1.30;;;0.90;;
13693;SDS011;6919;52.344;14.518;2022-09-12T14:34:12;1.48;;;1.00;;
13693;SDS011;6919;52.344;14.518;2022-09-12T14:36:43;1.48;;;1.10;;
13693;SDS011;6919;52.344;14.518;2022-09-12T14:39:17;1.02;;;0.93;;
13693;SDS011;6919;52.344;14.518;2022-09-12T14:42:00;1.70;;;0.88;;
13693;SDS011;6919;52.344;14.518;2022-09-12T14:44:33;1.83;;;1.00;;
13693;SDS011;6919;52.344;14.518;2022-09-12T14:47:10;4.53;;;1.00;;
13693;SDS011;6919;52.344;14.518;2022-09-12T14:49:45;2.15;;;1.20;;
13693;SDS011;6919;52.344;14.518;2022-09-12T14:52:21;2.42;;;1.25;;
13693;SDS011;6919;52.344;14.518;2022-09-12T14:54:54;1.85;;;1.08;;
13693;SDS011;6919;52.344;14.518;2022-09-12T14:57:36;1.33;;;1.23;;
13693;SDS011;6919;52.344;14.518;2022-09-12T15:00:17;2.08;;;1.88;;
13693;SDS011;6919;52.344;14.518;2022-09-12T15:02:49;2.10;;;1.42;;
13693;SDS011;6919;52.344;14.518;2022-09-12T15:05:21;2.70;;;1.52;;
13693;SDS011;6919;52.344;14.518;2022-09-12T15:07:54;1.40;;;1.30;;
13693;SDS011;6919;52.344;14.518;2022-09-12T15:10:28;1.10;;;1.00;;
13693;SDS011;6919;52.344;14.518;2022-09-12T15:13:16;1.10;;;1.00;;
13693;SDS011;6919;52.344;14.518;2022-09-12T15:15:50;3.53;;;1.80;;
13693;SDS011;6919;52.344;14.518;2022-09-12T15:18:20;2.63;;;1.42;;
13693;SDS011;6919;52.344;14.518;2022-09-12T15:20:52;3.15;;;1.92;;
13693;SDS011;6919;52.344;14.518;2022-09-12T15:23:34;2.72;;;1.17;;
13693;SDS011;6919;52.344;14.518;2022-09-12T15:26:09;0.90;;;0.90;;
13693;SDS011;6919;52.344;14.518;2022-09-12T15:28:41;1.90;;;1.17;;
13693;SDS011;6919;52.344;14.518;2022-09-12T15:31:11;2.90;;;1.00;;
13693;SDS011;6919;52.344;14.518;2022-09-12T15:33:50;1.00;;;0.90;;
13693;SDS011;6919;52.344;14.518;2022-09-12T15:36:19;1.73;;;1.33;;
13693;SDS011;6919;52.344;14.518;2022-09-12T15:38:49;1.33;;;0.97;;
13693;SDS011;6919;52.344;14.518;2022-09-12T15:41:19;2.13;;;1.40;;
13693;SDS011;6919;52.344;14.518;2022-09-12T15:43:50;2.47;;;1.27;;
13693;SDS011;6919;52.344;14.518;2022-09-12T15:46:18;1.97;;;1.17;;
13693;SDS011;6919;52.344;14.518;2022-09-12T15:48:47;1.10;;;1.00;;
13693;SDS011;6919;52.344;14.518;2022-09-12T15:51:16;2.10;;;1.00;;
13693;SDS011;6919;52.344;14.518;2022-09-12T15:53:46;1.50;;;0.93;;
13693;SDS011;6919;52.344;14.518;2022-09-12T15:56:17;1.13;;;1.03;;
13693;SDS011;6919;52.344;14.518;2022-09-12T15:58:48;1.03;;;0.93;;
13693;SDS011;6919;52.344;14.518;2022-09-12T16:01:25;2.43;;;1.20;;
13693;SDS011;6919;52.344;14.518;2022-09-12T16:03:55;1.27;;;1.10;;
13693;SDS011;6919;52.344;14.518;2022-09-12T16:06:23;0.97;;;0.97;;
13693;SDS011;6919;52.344;14.518;2022-09-12T16:08:53;1.20;;;1.10;;